CPX446 Details

Departure: Washington Dulles International Airport (KIAD)
Arrival: Chicago/Rockford International Airport (KRFD)
Route: BUNZZ3 RAMAY Q72 HACKS J149 FWA V340 OXI JOT


Current Weather Information
KIAD 260122Z 00000KT 10SM -RA BKN090 OVC110 20/11 A2988 RMK AO2 RAB19 P0000 T02000106
KRFD 260120Z 35014G24KT 7SM -RA FEW010 BKN015 OVC070 12/10 A2978 RMK AO2 P0003 T01170100